Time;durP1;ratioP1;P1;durP2;ratioP2;P2;SDS_P1;SDS_P2;PMS_P1;PMS_P2;Temp;Humidity;BMP_temperature;BMP_pressure;BME280_temperature;BME280_humidity;BME280_pressure;Samples;Min_cycle;Max_cycle;Signal;HPM_P1;HPM_P2
2023/06/22 00:01:29;;;;;;;8.43;5.40;;;;;;;;;;4971538;28;20089;-70
2023/06/22 00:03:55;;;;;;;9.40;5.15;;;;;;;;;;4988819;28;20125;-70
2023/06/22 00:06:20;;;;;;;12.75;5.88;;;;;;;;;;4989945;28;20073;-70
2023/06/22 00:08:46;;;;;;;13.57;5.90;;;;;;;;;;4989535;28;20038;-69
2023/06/22 00:11:12;;;;;;;11.15;5.90;;;;;;;;;;4989814;28;20503;-69
2023/06/22 00:13:39;;;;;;;12.85;5.30;;;;;;;;;;4990122;28;20038;-70
2023/06/22 00:16:05;;;;;;;16.02;5.57;;;;;;;;;;4989943;28;20473;-69
2023/06/22 00:18:32;;;;;;;18.98;5.72;;;;;;;;;;4992393;28;20041;-69
2023/06/22 00:20:58;;;;;;;9.48;6.00;;;;;;;;;;4993405;28;20045;-70
2023/06/22 00:23:24;;;;;;;10.90;5.93;;;;;;;;;;4993259;28;20030;-70
2023/06/22 00:25:50;;;;;;;14.60;6.82;;;;;;;;;;4993392;28;20030;-71
2023/06/22 00:28:15;;;;;;;12.73;6.70;;;;;;;;;;4993392;28;20034;-70
2023/06/22 00:30:41;;;;;;;13.40;6.47;;;;;;;;;;4991883;28;20038;-71
2023/06/22 00:33:07;;;;;;;9.90;5.75;;;;;;;;;;4992109;28;20038;-69
2023/06/22 00:35:33;;;;;;;9.02;6.30;;;;;;;;;;4993220;28;20046;-70
2023/06/22 00:38:00;;;;;;;7.60;5.55;;;;;;;;;;4987748;28;20041;-69
2023/06/22 00:40:33;;;;;;;18.48;7.00;;;;;;;;;;4992629;28;20030;-70
2023/06/22 00:43:00;;;;;;;12.10;6.75;;;;;;;;;;4992951;28;20084;-69
2023/06/22 00:45:26;;;;;;;12.82;7.75;;;;;;;;;;4991685;28;20030;-71
2023/06/22 00:47:53;;;;;;;11.30;6.43;;;;;;;;;;4989442;28;20030;-70
2023/06/22 00:50:22;;;;;;;10.60;6.28;;;;;;;;;;4990616;28;20035;-70
2023/06/22 00:52:53;;;;;;;11.25;6.70;;;;;;;;;;4991304;28;20087;-71
2023/06/22 00:55:21;;;;;;;8.95;6.38;;;;;;;;;;4988714;28;20073;-71
2023/06/22 00:57:47;;;;;;;8.52;6.15;;;;;;;;;;4989595;28;20026;-69
2023/06/22 01:00:19;;;;;;;10.15;6.65;;;;;;;;;;4988600;28;20037;-69
2023/06/22 01:02:46;;;;;;;11.98;6.15;;;;;;;;;;4991105;28;20057;-70
2023/06/22 01:05:16;;;;;;;9.82;6.50;;;;;;;;;;4991467;28;20026;-69
2023/06/22 01:08:04;;;;;;;12.77;7.10;;;;;;;;;;4991679;28;20084;-70
2023/06/22 01:10:41;;;;;;;9.57;6.10;;;;;;;;;;4987923;28;20080;-69
2023/06/22 01:13:25;;;;;;;7.65;5.30;;;;;;;;;;4989925;28;20098;-70
2023/06/22 01:15:58;;;;;;;8.60;4.95;;;;;;;;;;4990682;28;20041;-70
2023/06/22 01:18:28;;;;;;;8.80;5.60;;;;;;;;;;4989238;28;20034;-70
2023/06/22 01:20:57;;;;;;;11.02;5.50;;;;;;;;;;4990860;28;20034;-70
2023/06/22 01:23:39;;;;;;;8.70;5.60;;;;;;;;;;4989366;28;20026;-69
2023/06/22 01:26:13;;;;;;;9.07;4.80;;;;;;;;;;4989759;28;20124;-69
2023/06/22 01:28:42;;;;;;;8.10;5.07;;;;;;;;;;5002716;28;20687;-70
2023/06/22 01:31:12;;;;;;;6.97;5.20;;;;;;;;;;5010520;28;20030;-70
2023/06/22 01:33:41;;;;;;;7.93;5.22;;;;;;;;;;5010805;28;20072;-70
2023/06/22 01:36:08;;;;;;;10.82;5.30;;;;;;;;;;5010313;28;20146;-70
2023/06/22 01:38:35;;;;;;;11.82;5.85;;;;;;;;;;5009980;28;20026;-69
2023/06/22 01:41:02;;;;;;;8.77;6.05;;;;;;;;;;5011644;28;20461;-71
2023/06/22 01:43:29;;;;;;;8.90;5.93;;;;;;;;;;5010020;28;20124;-70
2023/06/22 01:45:56;;;;;;;7.78;5.57;;;;;;;;;;5011757;28;20380;-70
2023/06/22 01:48:22;;;;;;;10.43;5.93;;;;;;;;;;5010813;28;20622;-69
2023/06/22 01:50:48;;;;;;;10.38;6.45;;;;;;;;;;5011300;28;20042;-69
2023/06/22 01:53:14;;;;;;;8.15;5.88;;;;;;;;;;5011404;28;20037;-70
2023/06/22 01:55:39;;;;;;;13.18;6.75;;;;;;;;;;5011597;28;20116;-70
2023/06/22 01:58:05;;;;;;;19.17;7.38;;;;;;;;;;5011047;28;20563;-69
2023/06/22 02:00:38;;;;;;;12.40;7.00;;;;;;;;;;4993736;28;20494;-69
2023/06/22 02:03:13;;;;;;;7.60;6.30;;;;;;;;;;5005127;28;20542;-69
2023/06/22 02:05:52;;;;;;;9.77;5.30;;;;;;;;;;4991656;28;20042;-70
2023/06/22 02:08:22;;;;;;;9.77;5.47;;;;;;;;;;4989524;28;20080;-70
2023/06/22 02:10:50;;;;;;;8.10;5.68;;;;;;;;;;4990341;28;20034;-71
2023/06/22 02:13:17;;;;;;;8.55;5.50;;;;;;;;;;4991738;28;20485;-70
2023/06/22 02:15:43;;;;;;;11.13;5.25;;;;;;;;;;4990091;28;20038;-69
2023/06/22 02:18:12;;;;;;;10.52;6.88;;;;;;;;;;4991003;28;20488;-69
2023/06/22 02:20:39;;;;;;;8.75;5.90;;;;;;;;;;4991382;28;20065;-70
2023/06/22 02:23:06;;;;;;;7.18;5.65;;;;;;;;;;4991301;28;20109;-71
2023/06/22 02:25:35;;;;;;;7.75;5.32;;;;;;;;;;4990220;28;20125;-70
2023/06/22 02:28:01;;;;;;;11.07;5.80;;;;;;;;;;4991570;28;20022;-69
2023/06/22 02:30:27;;;;;;;10.75;5.90;;;;;;;;;;4991253;28;20042;-70
2023/06/22 02:32:58;;;;;;;8.02;5.78;;;;;;;;;;4990577;28;20022;-70
2023/06/22 02:35:31;;;;;;;14.05;6.78;;;;;;;;;;4991255;28;20506;-69
2023/06/22 02:38:01;;;;;;;12.65;5.95;;;;;;;;;;4991575;28;20431;-69
2023/06/22 02:40:29;;;;;;;10.82;6.68;;;;;;;;;;4990822;28;20039;-70
2023/06/22 02:43:02;;;;;;;18.23;7.07;;;;;;;;;;4993331;28;20037;-69
2023/06/22 02:45:28;;;;;;;15.57;6.73;;;;;;;;;;4999686;28;20077;-69
2023/06/22 02:47:55;;;;;;;19.10;7.38;;;;;;;;;;4992767;28;20087;-69
2023/06/22 02:50:21;;;;;;;13.75;7.03;;;;;;;;;;5010232;28;20045;-69
2023/06/22 02:52:46;;;;;;;13.48;7.22;;;;;;;;;;5008907;28;20033;-70
2023/06/22 02:55:13;;;;;;;13.48;6.95;;;;;;;;;;5009199;28;20057;-69
2023/06/22 02:57:43;;;;;;;16.70;7.07;;;;;;;;;;5010645;28;20029;-70
2023/06/22 03:00:17;;;;;;;15.80;7.28;;;;;;;;;;5010068;28;20040;-70
2023/06/22 03:02:44;;;;;;;9.07;6.47;;;;;;;;;;5010138;28;20030;-69
2023/06/22 03:05:13;;;;;;;10.77;6.60;;;;;;;;;;5008716;28;20088;-69
2023/06/22 03:07:43;;;;;;;14.10;7.50;;;;;;;;;;5001841;28;20042;-70
2023/06/22 03:10:10;;;;;;;13.52;6.65;;;;;;;;;;4988892;28;20536;-69
2023/06/22 03:12:37;;;;;;;9.68;6.43;;;;;;;;;;4989350;28;20022;-70
2023/06/22 03:15:09;;;;;;;9.95;6.50;;;;;;;;;;4989453;28;20045;-69
2023/06/22 03:17:36;;;;;;;12.88;6.90;;;;;;;;;;4989473;28;20520;-70
2023/06/22 03:20:10;;;;;;;11.43;6.70;;;;;;;;;;4988844;28;20093;-70
2023/06/22 03:22:41;;;;;;;10.50;6.93;;;;;;;;;;4989200;28;20038;-69
2023/06/22 03:25:13;;;;;;;14.75;6.95;;;;;;;;;;4990551;28;20570;-69
2023/06/22 03:27:43;;;;;;;16.63;6.65;;;;;;;;;;4989243;28;20030;-69
2023/06/22 03:30:11;;;;;;;16.65;6.25;;;;;;;;;;4987330;28;20058;-69
2023/06/22 03:32:37;;;;;;;10.32;6.18;;;;;;;;;;4988894;28;20029;-69
2023/06/22 03:35:06;;;;;;;20.85;8.55;;;;;;;;;;4970723;28;20034;-69
2023/06/22 03:37:32;;;;;;;22.85;8.07;;;;;;;;;;4986356;28;20031;-69
2023/06/22 03:40:00;;;;;;;9.40;6.15;;;;;;;;;;4988522;28;20053;-69
2023/06/22 03:42:28;;;;;;;14.13;7.20;;;;;;;;;;4988792;28;20538;-69
2023/06/22 03:44:53;;;;;;;13.98;7.32;;;;;;;;;;4988938;28;20046;-69
2023/06/22 03:47:19;;;;;;;21.55;6.55;;;;;;;;;;4971665;28;20053;-69
2023/06/22 03:49:45;;;;;;;14.60;7.60;;;;;;;;;;4989973;28;20065;-69
2023/06/22 03:52:11;;;;;;;14.52;6.68;;;;;;;;;;4991404;28;20029;-70
2023/06/22 03:54:37;;;;;;;10.82;6.88;;;;;;;;;;4994258;28;20428;-69
2023/06/22 03:57:03;;;;;;;13.80;6.63;;;;;;;;;;4992938;28;20109;-69
2023/06/22 03:59:29;;;;;;;20.90;6.97;;;;;;;;;;4990594;28;20129;-70
2023/06/22 04:01:55;;;;;;;17.13;7.28;;;;;;;;;;4993973;28;20118;-69
2023/06/22 04:04:21;;;;;;;18.25;7.53;;;;;;;;;;4991820;28;20121;-71
2023/06/22 04:06:46;;;;;;;12.15;6.28;;;;;;;;;;4995163;28;20097;-69
2023/06/22 04:09:12;;;;;;;14.90;6.97;;;;;;;;;;4993853;28;20388;-69
2023/06/22 04:11:38;;;;;;;12.07;6.47;;;;;;;;;;4995045;28;20022;-71
2023/06/22 04:14:04;;;;;;;16.48;7.25;;;;;;;;;;4993671;28;20042;-69
2023/06/22 04:16:29;;;;;;;9.50;6.30;;;;;;;;;;4991931;28;20044;-69
2023/06/22 04:18:55;;;;;;;20.67;6.90;;;;;;;;;;4994707;28;20030;-69
2023/06/22 04:21:21;;;;;;;12.10;6.43;;;;;;;;;;4995312;28;20495;-69
2023/06/22 04:23:47;;;;;;;17.88;7.00;;;;;;;;;;4990800;28;20035;-69
2023/06/22 04:26:14;;;;;;;13.32;7.45;;;;;;;;;;4993990;28;20062;-69
2023/06/22 04:28:40;;;;;;;20.63;7.65;;;;;;;;;;4987554;28;20041;-70
2023/06/22 04:31:06;;;;;;;15.23;6.80;;;;;;;;;;4989915;28;20038;-69
2023/06/22 04:33:32;;;;;;;19.25;7.75;;;;;;;;;;4994082;28;20042;-69
2023/06/22 04:36:00;;;;;;;15.20;7.40;;;;;;;;;;4992868;28;20097;-70
2023/06/22 04:38:27;;;;;;;12.10;7.15;;;;;;;;;;4988709;28;20038;-69
2023/06/22 04:40:53;;;;;;;18.75;8.32;;;;;;;;;;4993372;28;20032;-70
2023/06/22 04:43:20;;;;;;;12.80;8.05;;;;;;;;;;4993965;28;20026;-70
2023/06/22 04:45:46;;;;;;;16.63;6.93;;;;;;;;;;4994526;28;20028;-69
2023/06/22 04:48:15;;;;;;;16.85;7.15;;;;;;;;;;4994829;28;20121;-70
2023/06/22 04:50:42;;;;;;;14.35;8.18;;;;;;;;;;4994694;28;20041;-70
2023/06/22 04:53:09;;;;;;;21.02;8.70;;;;;;;;;;4994622;28;20022;-69
2023/06/22 04:55:37;;;;;;;16.13;7.97;;;;;;;;;;4994735;28;20030;-69
2023/06/22 04:58:04;;;;;;;16.63;7.55;;;;;;;;;;4994492;28;20106;-70
2023/06/22 05:00:30;;;;;;;19.50;8.43;;;;;;;;;;4994569;28;20069;-70
2023/06/22 05:03:03;;;;;;;15.88;8.25;;;;;;;;;;4994477;28;20442;-70
2023/06/22 05:05:29;;;;;;;12.98;7.97;;;;;;;;;;4993664;28;20340;-71
2023/06/22 05:08:00;;;;;;;11.30;7.00;;;;;;;;;;4994296;28;20417;-71
2023/06/22 05:10:26;;;;;;;13.65;7.15;;;;;;;;;;4993390;28;20042;-71
2023/06/22 05:12:52;;;;;;;15.75;7.47;;;;;;;;;;4995055;28;20018;-71
2023/06/22 05:15:22;;;;;;;16.20;7.45;;;;;;;;;;4993688;28;20045;-71
2023/06/22 05:17:48;;;;;;;15.18;6.35;;;;;;;;;;4994107;28;20027;-71
2023/06/22 05:20:17;;;;;;;14.95;7.70;;;;;;;;;;4994286;28;20503;-70
2023/06/22 05:22:43;;;;;;;11.55;7.40;;;;;;;;;;4992948;28;20041;-70
2023/06/22 05:25:10;;;;;;;11.23;7.18;;;;;;;;;;4993803;28;20030;-69
2023/06/22 05:27:40;;;;;;;11.02;7.30;;;;;;;;;;4993770;28;20077;-70
2023/06/22 05:30:07;;;;;;;7.50;6.47;;;;;;;;;;4993488;28;20018;-69
2023/06/22 05:32:33;;;;;;;11.93;6.70;;;;;;;;;;4994061;28;20093;-69
2023/06/22 05:34:59;;;;;;;13.80;6.95;;;;;;;;;;4992674;28;20435;-69
2023/06/22 05:37:26;;;;;;;9.48;6.50;;;;;;;;;;4992885;28;20101;-69
2023/06/22 05:39:55;;;;;;;12.07;6.60;;;;;;;;;;4993639;28;20022;-70
2023/06/22 05:42:21;;;;;;;11.27;6.30;;;;;;;;;;4993691;28;20040;-70
2023/06/22 05:44:47;;;;;;;10.05;5.97;;;;;;;;;;4993871;28;20053;-70
2023/06/22 05:47:13;;;;;;;10.73;5.97;;;;;;;;;;4993745;28;20049;-70
2023/06/22 05:49:39;;;;;;;11.50;5.85;;;;;;;;;;4992270;28;20440;-70
2023/06/22 05:52:05;;;;;;;9.95;5.47;;;;;;;;;;4994302;28;20082;-69
2023/06/22 05:54:31;;;;;;;9.63;5.53;;;;;;;;;;4994356;28;20385;-69
2023/06/22 05:56:57;;;;;;;12.50;5.20;;;;;;;;;;4994553;28;20500;-70
2023/06/22 05:59:22;;;;;;;9.23;5.30;;;;;;;;;;4994276;28;20048;-69
2023/06/22 06:01:51;;;;;;;9.23;5.05;;;;;;;;;;4994148;28;20042;-70
2023/06/22 06:04:18;;;;;;;14.18;6.03;;;;;;;;;;4993724;28;20529;-70
2023/06/22 06:06:44;;;;;;;9.05;5.25;;;;;;;;;;4993855;28;20026;-70
2023/06/22 06:09:11;;;;;;;7.10;4.90;;;;;;;;;;4993975;28;20079;-70
2023/06/22 06:11:37;;;;;;;6.22;4.57;;;;;;;;;;4993862;28;20089;-72
2023/06/22 06:14:03;;;;;;;6.75;4.65;;;;;;;;;;5008441;28;20157;-70
2023/06/22 06:16:30;;;;;;;7.85;5.40;;;;;;;;;;5006282;28;20066;-72
2023/06/22 06:18:56;;;;;;;7.43;4.88;;;;;;;;;;4993343;28;20069;-70
2023/06/22 06:21:22;;;;;;;7.93;5.13;;;;;;;;;;4992896;28;20085;-71
2023/06/22 06:23:48;;;;;;;5.90;4.68;;;;;;;;;;4992916;28;20034;-70
2023/06/22 06:26:16;;;;;;;8.95;4.93;;;;;;;;;;4993340;28;20038;-72
2023/06/22 06:28:43;;;;;;;7.78;5.60;;;;;;;;;;4993325;28;20022;-71
2023/06/22 06:31:09;;;;;;;7.07;4.70;;;;;;;;;;4993159;28;20049;-71
2023/06/22 06:33:35;;;;;;;10.38;5.00;;;;;;;;;;4991849;28;20029;-70
2023/06/22 06:36:03;;;;;;;8.50;4.70;;;;;;;;;;4990639;28;20042;-72
2023/06/22 06:38:30;;;;;;;31.88;6.85;;;;;;;;;;4993138;28;20440;-71
2023/06/22 06:40:56;;;;;;;5.90;4.15;;;;;;;;;;4992790;28;20378;-70
2023/06/22 06:43:23;;;;;;;7.68;4.47;;;;;;;;;;4991666;28;20022;-71
2023/06/22 06:45:49;;;;;;;6.82;4.30;;;;;;;;;;4991313;28;20109;-71
2023/06/22 06:48:15;;;;;;;7.22;3.92;;;;;;;;;;4992555;28;20045;-70
2023/06/22 06:50:40;;;;;;;5.45;4.15;;;;;;;;;;4992763;28;20495;-71
2023/06/22 06:53:06;;;;;;;7.38;4.47;;;;;;;;;;4992676;28;20022;-71
2023/06/22 06:55:34;;;;;;;5.53;4.55;;;;;;;;;;4992771;28;20126;-70
2023/06/22 06:58:07;;;;;;;7.82;4.82;;;;;;;;;;4992797;28;20062;-72
2023/06/22 07:00:33;;;;;;;5.90;4.60;;;;;;;;;;4992285;28;20113;-71
2023/06/22 07:02:59;;;;;;;8.38;5.40;;;;;;;;;;4992977;28;20049;-73
2023/06/22 07:05:30;;;;;;;7.87;4.37;;;;;;;;;;4992772;28;20037;-71
2023/06/22 07:07:56;;;;;;;7.72;4.90;;;;;;;;;;4993926;28;20022;-72
2023/06/22 07:10:22;;;;;;;8.57;4.80;;;;;;;;;;4992495;28;20493;-71
2023/06/22 07:12:48;;;;;;;8.20;5.05;;;;;;;;;;4995301;28;20029;-71
2023/06/22 07:15:14;;;;;;;5.63;5.03;;;;;;;;;;4991164;28;20535;-70
2023/06/22 07:17:42;;;;;;;11.80;5.15;;;;;;;;;;4992550;28;20069;-71
2023/06/22 07:20:12;;;;;;;7.22;5.10;;;;;;;;;;4992744;28;20038;-71
2023/06/22 07:22:39;;;;;;;5.93;4.60;;;;;;;;;;4992284;28;20033;-71
2023/06/22 07:25:09;;;;;;;5.38;4.70;;;;;;;;;;4991261;28;20121;-72
2023/06/22 07:27:45;;;;;;;12.55;5.50;;;;;;;;;;4992021;28;20030;-72
2023/06/22 07:30:12;;;;;;;12.07;5.95;;;;;;;;;;4996160;28;20133;-71
2023/06/22 07:32:37;;;;;;;5.78;4.80;;;;;;;;;;4996292;28;20026;-70
2023/06/22 07:35:04;;;;;;;8.07;5.15;;;;;;;;;;4994695;28;20104;-70
2023/06/22 07:37:30;;;;;;;9.02;4.63;;;;;;;;;;4996509;28;20050;-69
2023/06/22 07:39:59;;;;;;;8.90;4.95;;;;;;;;;;4995754;28;20030;-70
2023/06/22 07:42:25;;;;;;;6.90;4.75;;;;;;;;;;4987989;28;20098;-70
2023/06/22 07:44:51;;;;;;;7.05;4.70;;;;;;;;;;4995722;28;20408;-71
2023/06/22 07:47:25;;;;;;;6.20;4.88;;;;;;;;;;4996058;28;20027;-71
2023/06/22 07:49:51;;;;;;;6.55;4.57;;;;;;;;;;4995879;28;20380;-70
2023/06/22 07:52:17;;;;;;;8.52;4.90;;;;;;;;;;4995691;28;20054;-70
2023/06/22 07:54:42;;;;;;;8.73;5.00;;;;;;;;;;4961948;28;20065;-70
2023/06/22 07:57:10;;;;;;;7.55;5.35;;;;;;;;;;5004414;28;20076;-69
2023/06/22 07:59:36;;;;;;;6.63;4.75;;;;;;;;;;5015489;28;20033;-70
2023/06/22 08:02:03;;;;;;;9.98;5.70;;;;;;;;;;5015110;28;20022;-70
2023/06/22 08:04:29;;;;;;;7.88;4.90;;;;;;;;;;5015196;28;20041;-70
2023/06/22 08:06:55;;;;;;;8.27;5.50;;;;;;;;;;5015494;28;20083;-70
2023/06/22 08:09:21;;;;;;;10.18;5.40;;;;;;;;;;5014985;28;20728;-70
2023/06/22 08:11:49;;;;;;;7.72;5.63;;;;;;;;;;5014116;28;20152;-70
2023/06/22 08:14:14;;;;;;;6.00;4.75;;;;;;;;;;5015324;28;20129;-70
2023/06/22 08:16:41;;;;;;;11.07;6.07;;;;;;;;;;5015356;28;20026;-70
2023/06/22 08:19:07;;;;;;;6.72;4.80;;;;;;;;;;5015113;28;20046;-70
2023/06/22 08:21:33;;;;;;;6.38;4.97;;;;;;;;;;5015456;28;20033;-71
2023/06/22 08:23:58;;;;;;;9.82;4.80;;;;;;;;;;5015059;28;20041;-71
2023/06/22 08:26:24;;;;;;;9.77;6.00;;;;;;;;;;5014871;28;20619;-70
2023/06/22 08:28:50;;;;;;;9.88;5.82;;;;;;;;;;5014671;28;20052;-70
2023/06/22 08:31:16;;;;;;;7.32;5.20;;;;;;;;;;5014917;28;20022;-70
2023/06/22 08:33:43;;;;;;;6.22;5.10;;;;;;;;;;5013630;28;20487;-69
2023/06/22 08:36:10;;;;;;;6.53;4.80;;;;;;;;;;5014855;28;20036;-70
2023/06/22 08:38:36;;;;;;;9.57;5.50;;;;;;;;;;5014730;28;20555;-71
2023/06/22 08:41:02;;;;;;;12.55;5.40;;;;;;;;;;5015165;28;20073;-70
2023/06/22 08:43:29;;;;;;;8.40;5.45;;;;;;;;;;5015120;28;20092;-70
2023/06/22 08:45:54;;;;;;;7.90;5.53;;;;;;;;;;5013171;28;20025;-71
2023/06/22 08:48:21;;;;;;;8.13;5.43;;;;;;;;;;5014141;28;20045;-72
2023/06/22 08:50:47;;;;;;;10.65;6.32;;;;;;;;;;5013080;28;20033;-71
2023/06/22 08:53:12;;;;;;;8.50;5.75;;;;;;;;;;5013020;28;20041;-71
2023/06/22 08:55:38;;;;;;;6.82;5.30;;;;;;;;;;5014231;28;20034;-70
2023/06/22 08:58:04;;;;;;;7.50;5.03;;;;;;;;;;5014185;28;20400;-71
2023/06/22 09:00:32;;;;;;;6.60;5.57;;;;;;;;;;5014229;28;20026;-71
2023/06/22 09:02:58;;;;;;;6.18;5.28;;;;;;;;;;5013019;28;20080;-71
2023/06/22 09:05:27;;;;;;;7.68;5.40;;;;;;;;;;5014199;28;20054;-71
2023/06/22 09:07:56;;;;;;;7.22;5.20;;;;;;;;;;4996864;28;20042;-70
2023/06/22 09:10:21;;;;;;;6.88;5.15;;;;;;;;;;5013847;28;20118;-70
2023/06/22 09:12:47;;;;;;;6.45;5.40;;;;;;;;;;5014185;28;20169;-70
2023/06/22 09:15:13;;;;;;;9.00;5.70;;;;;;;;;;5014159;28;20026;-71
2023/06/22 09:17:40;;;;;;;7.45;5.53;;;;;;;;;;5014007;28;20025;-71
2023/06/22 09:20:10;;;;;;;8.50;5.55;;;;;;;;;;5013628;28;20021;-71
2023/06/22 09:22:36;;;;;;;7.32;5.90;;;;;;;;;;5013462;28;20479;-70
2023/06/22 09:25:03;;;;;;;7.18;5.78;;;;;;;;;;5013631;28;20030;-71
2023/06/22 09:27:30;;;;;;;8.23;5.82;;;;;;;;;;5013788;28;20562;-71
2023/06/22 09:29:58;;;;;;;7.32;5.82;;;;;;;;;;5013651;28;20105;-71
2023/06/22 09:32:25;;;;;;;6.57;5.85;;;;;;;;;;5013383;28;20420;-70
2023/06/22 09:34:51;;;;;;;10.30;6.00;;;;;;;;;;4991842;28;20555;-71
2023/06/22 09:37:17;;;;;;;11.82;6.70;;;;;;;;;;4993556;28;20116;-70
2023/06/22 09:39:42;;;;;;;6.28;5.57;;;;;;;;;;4993630;28;20105;-71
2023/06/22 09:42:08;;;;;;;8.05;5.30;;;;;;;;;;4993764;28;20443;-71
2023/06/22 09:44:34;;;;;;;7.45;6.18;;;;;;;;;;4994387;28;20026;-71
2023/06/22 09:47:00;;;;;;;7.15;5.50;;;;;;;;;;4993776;28;20405;-71
2023/06/22 09:49:26;;;;;;;11.15;6.13;;;;;;;;;;4993543;28;20018;-71
2023/06/22 09:51:52;;;;;;;9.70;5.57;;;;;;;;;;4994949;28;20389;-70
2023/06/22 09:54:18;;;;;;;6.55;5.70;;;;;;;;;;4995024;28;20133;-70
2023/06/22 09:56:44;;;;;;;7.80;5.90;;;;;;;;;;4998696;28;20034;-72
2023/06/22 09:59:11;;;;;;;8.30;5.65;;;;;;;;;;4998476;28;20030;-71
2023/06/22 10:01:38;;;;;;;7.80;5.97;;;;;;;;;;4994867;28;20030;-71
2023/06/22 10:04:03;;;;;;;7.72;6.30;;;;;;;;;;4994189;28;20030;-70
2023/06/22 10:06:30;;;;;;;6.88;5.90;;;;;;;;;;4993350;28;20110;-71
2023/06/22 10:08:55;;;;;;;8.32;6.38;;;;;;;;;;4975885;28;20428;-71
2023/06/22 10:11:26;;;;;;;8.15;5.70;;;;;;;;;;4992535;28;20078;-71
2023/06/22 10:13:54;;;;;;;10.63;5.43;;;;;;;;;;4993519;28;20030;-70
2023/06/22 10:16:21;;;;;;;7.95;5.90;;;;;;;;;;4993488;28;20076;-72
2023/06/22 10:18:47;;;;;;;7.50;5.90;;;;;;;;;;4993771;28;20045;-71
2023/06/22 10:21:13;;;;;;;8.13;5.97;;;;;;;;;;4993271;28;20145;-71
2023/06/22 10:23:40;;;;;;;6.82;5.50;;;;;;;;;;4992961;28;20488;-70
2023/06/22 10:26:05;;;;;;;6.53;5.78;;;;;;;;;;4991596;28;20033;-72
2023/06/22 10:28:32;;;;;;;6.03;5.43;;;;;;;;;;4992135;28;20101;-71
2023/06/22 10:30:58;;;;;;;8.50;5.78;;;;;;;;;;4975767;28;20114;-71
2023/06/22 10:33:23;;;;;;;7.50;5.40;;;;;;;;;;4992090;28;20035;-70
2023/06/22 10:35:49;;;;;;;12.27;5.93;;;;;;;;;;4993026;28;20109;-71
2023/06/22 10:38:16;;;;;;;7.57;6.05;;;;;;;;;;4993440;28;20057;-70
2023/06/22 10:40:41;;;;;;;14.73;6.22;;;;;;;;;;4992737;28;20026;-70
2023/06/22 10:43:07;;;;;;;6.72;5.45;;;;;;;;;;4992826;28;20041;-70
2023/06/22 10:45:33;;;;;;;9.15;6.90;;;;;;;;;;4991734;28;20034;-70
2023/06/22 10:47:58;;;;;;;7.95;5.60;;;;;;;;;;4992822;28;20408;-71
2023/06/22 10:50:25;;;;;;;7.05;5.60;;;;;;;;;;4992699;28;20495;-70
2023/06/22 10:52:52;;;;;;;7.85;5.85;;;;;;;;;;4992605;28;20164;-70
2023/06/22 10:55:18;;;;;;;10.98;5.63;;;;;;;;;;4992433;28;20113;-71
2023/06/22 10:57:46;;;;;;;9.60;5.80;;;;;;;;;;4991061;28;20120;-69
2023/06/22 11:00:14;;;;;;;9.18;5.85;;;;;;;;;;4992222;28;20033;-70
2023/06/22 11:02:41;;;;;;;8.38;5.60;;;;;;;;;;4991633;28;20034;-71
2023/06/22 11:05:07;;;;;;;9.65;6.57;;;;;;;;;;4992920;28;20019;-70
2023/06/22 11:07:33;;;;;;;8.27;5.63;;;;;;;;;;4992815;28;20109;-71
2023/06/22 11:09:59;;;;;;;6.57;5.70;;;;;;;;;;4992601;28;20030;-70
2023/06/22 11:12:25;;;;;;;6.82;5.57;;;;;;;;;;4992672;28;20229;-70
2023/06/22 11:14:51;;;;;;;6.90;5.82;;;;;;;;;;4992874;28;20392;-69
2023/06/22 11:17:18;;;;;;;6.13;5.53;;;;;;;;;;4992634;28;20042;-70
2023/06/22 11:19:44;;;;;;;6.68;5.75;;;;;;;;;;4990929;28;20068;-69
2023/06/22 11:22:10;;;;;;;7.38;5.82;;;;;;;;;;4992519;28;20038;-70
2023/06/22 11:24:36;;;;;;;6.57;5.93;;;;;;;;;;4990985;28;20080;-70
2023/06/22 11:27:02;;;;;;;6.45;5.75;;;;;;;;;;4992213;28;20034;-70
2023/06/22 11:29:27;;;;;;;8.57;5.53;;;;;;;;;;4992249;28;20092;-70
2023/06/22 11:31:53;;;;;;;8.93;6.35;;;;;;;;;;4992534;28;20046;-70
2023/06/22 11:34:19;;;;;;;10.43;5.90;;;;;;;;;;4992775;28;20026;-70
2023/06/22 11:36:45;;;;;;;8.40;5.53;;;;;;;;;;4992109;28;20049;-70
2023/06/22 11:39:13;;;;;;;7.72;5.80;;;;;;;;;;4992241;28;20050;-71
2023/06/22 11:41:39;;;;;;;6.85;5.90;;;;;;;;;;4991161;28;20042;-71
2023/06/22 11:44:05;;;;;;;7.20;5.55;;;;;;;;;;4992628;28;20374;-71
2023/06/22 11:46:32;;;;;;;8.60;6.45;;;;;;;;;;4992746;28;20034;-71
2023/06/22 11:48:57;;;;;;;8.48;6.65;;;;;;;;;;4992354;28;20018;-71
2023/06/22 11:51:23;;;;;;;7.25;6.15;;;;;;;;;;4990890;28;20108;-70
2023/06/22 11:53:50;;;;;;;8.15;6.00;;;;;;;;;;4992239;28;20453;-70
2023/06/22 11:56:16;;;;;;;7.32;6.10;;;;;;;;;;4992502;28;20034;-72
2023/06/22 11:58:41;;;;;;;7.85;5.63;;;;;;;;;;4992209;28;20408;-70
2023/06/22 12:01:07;;;;;;;8.10;6.10;;;;;;;;;;4992475;28;20483;-69
2023/06/22 12:03:33;;;;;;;7.22;5.75;;;;;;;;;;4991569;28;20037;-69
2023/06/22 12:05:59;;;;;;;8.88;6.10;;;;;;;;;;4992025;28;20042;-69
2023/06/22 12:08:25;;;;;;;6.28;5.68;;;;;;;;;;4990276;28;20034;-70
2023/06/22 12:10:53;;;;;;;6.63;5.93;;;;;;;;;;4992471;28;20045;-69
2023/06/22 12:13:19;;;;;;;10.57;5.90;;;;;;;;;;4993496;28;20037;-70
2023/06/22 12:15:45;;;;;;;6.45;5.85;;;;;;;;;;4995677;28;20034;-71
2023/06/22 12:18:11;;;;;;;6.25;5.10;;;;;;;;;;4996286;28;20054;-69
2023/06/22 12:20:37;;;;;;;7.28;5.65;;;;;;;;;;4995269;28;20045;-70
2023/06/22 12:23:03;;;;;;;8.88;6.00;;;;;;;;;;4995102;28;20185;-70
2023/06/22 12:25:29;;;;;;;6.85;6.18;;;;;;;;;;4994095;28;20065;-69
2023/06/22 12:27:55;;;;;;;8.70;5.88;;;;;;;;;;4995257;28;20027;-71
2023/06/22 12:30:20;;;;;;;7.22;5.90;;;;;;;;;;4994981;28;20030;-69
2023/06/22 12:32:46;;;;;;;8.23;6.38;;;;;;;;;;4990571;28;20588;-70
2023/06/22 12:35:13;;;;;;;10.30;5.60;;;;;;;;;;4994154;28;20110;-70
2023/06/22 12:37:43;;;;;;;9.88;6.65;;;;;;;;;;4994501;28;20026;-70
2023/06/22 12:40:11;;;;;;;7.15;6.45;;;;;;;;;;4994471;28;20473;-70
2023/06/22 12:42:37;;;;;;;7.13;6.00;;;;;;;;;;4994827;28;20034;-71
2023/06/22 12:45:03;;;;;;;6.65;5.57;;;;;;;;;;4995191;28;20044;-71
2023/06/22 12:47:28;;;;;;;8.00;5.80;;;;;;;;;;4993781;28;20503;-69
2023/06/22 12:49:54;;;;;;;6.78;5.55;;;;;;;;;;4993587;28;20074;-69
2023/06/22 12:52:20;;;;;;;8.25;5.05;;;;;;;;;;4992461;28;20036;-71
2023/06/22 12:54:48;;;;;;;10.75;5.68;;;;;;;;;;4990939;28;20041;-70
2023/06/22 12:57:13;;;;;;;6.82;6.00;;;;;;;;;;4994479;28;20026;-70
2023/06/22 12:59:39;;;;;;;8.55;6.18;;;;;;;;;;4994136;28;20088;-71
2023/06/22 13:02:05;;;;;;;7.10;5.10;;;;;;;;;;4994457;28;20388;-71
2023/06/22 13:04:31;;;;;;;6.05;5.45;;;;;;;;;;4993552;28;20042;-70
2023/06/22 13:06:57;;;;;;;8.23;5.60;;;;;;;;;;4994088;28;20554;-70
2023/06/22 13:09:22;;;;;;;8.68;5.70;;;;;;;;;;4992454;28;20076;-70
2023/06/22 13:11:48;;;;;;;7.93;5.60;;;;;;;;;;4990541;28;20030;-72
2023/06/22 13:14:16;;;;;;;7.25;6.13;;;;;;;;;;4993873;28;20056;-70
2023/06/22 13:16:41;;;;;;;10.48;5.75;;;;;;;;;;4992778;28;20123;-70
2023/06/22 13:19:07;;;;;;;8.80;5.70;;;;;;;;;;4994294;28;20101;-71
2023/06/22 13:21:33;;;;;;;11.10;5.07;;;;;;;;;;4992882;28;20026;-70
2023/06/22 13:23:59;;;;;;;7.38;4.95;;;;;;;;;;4988795;28;20031;-70
2023/06/22 13:26:25;;;;;;;7.65;5.88;;;;;;;;;;4989038;28;20037;-71
2023/06/22 13:28:53;;;;;;;7.18;5.45;;;;;;;;;;4993249;28;20042;-70
2023/06/22 13:31:19;;;;;;;7.13;5.93;;;;;;;;;;4990830;28;20088;-69
2023/06/22 13:33:47;;;;;;;8.25;5.10;;;;;;;;;;4991735;28;20121;-70
2023/06/22 13:36:13;;;;;;;6.35;5.35;;;;;;;;;;4990063;28;20041;-71
2023/06/22 13:38:40;;;;;;;7.47;5.22;;;;;;;;;;4993147;28;20049;-70
2023/06/22 13:41:06;;;;;;;8.13;5.43;;;;;;;;;;4993319;28;20038;-70
2023/06/22 13:43:32;;;;;;;6.35;5.40;;;;;;;;;;4992088;28;20038;-71
2023/06/22 13:45:58;;;;;;;10.25;5.25;;;;;;;;;;4993444;28;20027;-69
2023/06/22 13:48:25;;;;;;;7.78;5.28;;;;;;;;;;4993494;28;20038;-71
2023/06/22 13:50:52;;;;;;;6.00;5.40;;;;;;;;;;4993544;28;20033;-68
2023/06/22 13:53:20;;;;;;;9.23;5.68;;;;;;;;;;4993472;28;20038;-71
2023/06/22 13:55:47;;;;;;;9.30;5.10;;;;;;;;;;4992505;28;20037;-74
2023/06/22 13:58:14;;;;;;;7.10;5.47;;;;;;;;;;4993243;28;20057;-69
2023/06/22 14:00:40;;;;;;;8.18;5.55;;;;;;;;;;4996342;28;20515;-71
2023/06/22 14:03:05;;;;;;;5.78;5.15;;;;;;;;;;4997815;28;20042;-70
2023/06/22 14:05:31;;;;;;;5.93;5.10;;;;;;;;;;4999095;28;20396;-70
2023/06/22 14:07:57;;;;;;;6.95;4.97;;;;;;;;;;4993321;28;20038;-69
2023/06/22 14:10:23;;;;;;;7.65;5.38;;;;;;;;;;4993248;28;20176;-69
2023/06/22 14:12:49;;;;;;;5.57;5.00;;;;;;;;;;4993368;28;20042;-69
2023/06/22 14:15:15;;;;;;;6.13;5.50;;;;;;;;;;4993652;28;20034;-70
2023/06/22 14:17:41;;;;;;;7.53;5.45;;;;;;;;;;4993343;28;20031;-70
2023/06/22 14:20:08;;;;;;;7.07;5.28;;;;;;;;;;4991674;28;20030;-71
2023/06/22 14:22:35;;;;;;;6.03;5.30;;;;;;;;;;4993137;28;20477;-71
2023/06/22 14:25:01;;;;;;;8.55;4.97;;;;;;;;;;4993029;28;20037;-71
2023/06/22 14:27:27;;;;;;;9.02;4.93;;;;;;;;;;4991926;28;20030;-74
2023/06/22 14:29:53;;;;;;;9.85;5.45;;;;;;;;;;4993030;28;20491;-69
2023/06/22 14:32:19;;;;;;;6.45;4.95;;;;;;;;;;4993244;28;20108;-69
2023/06/22 14:34:45;;;;;;;6.85;5.43;;;;;;;;;;4992784;28;20480;-69
2023/06/22 14:37:12;;;;;;;6.28;5.10;;;;;;;;;;4992748;28;20110;-71